Aviation Digital Data Service (ADDS)

Output produced by METARs form (1740 UTC 30 October 2020)
found at http://www.aviationweather.gov/metar/data/
 
METAR text: KFAT 301653Z 28003KT 8SM CLR 16/M01 A3010 RMK AO2 SLP191 T01561011
Conditions at: KFAT (FRESNO , CA, US) observed 1653 UTC 30 October 2020
Temperature: 15.6°C (60°F)
Dewpoint: -1.1°C (30°F) [RH = 32%]
Pressure (altimeter): 30.10 inches Hg (1019.4 mb)
[Sea-level pressure: 1019.1 mb]
Winds: from the W (280 degrees) at 3 MPH (3 knots; 1.5 m/s)
Visibility: 8 miles (13 km)
Ceiling: at least 12,000 feet AGL
Clouds: sky clear below 12,000 feet AGL
Weather: no significant weather observed at this time

Forecast for: KFAT (FRESNO , CA, US)
Text: KFAT 301720Z 3018/3118 VRB03KT P6SM SKC
Forecast period: 1800 UTC 30 October 2020 to 1800 UTC 31 October 2020
Forecast type: FROM: standard forecast or significant change
Winds: variable direction winds at 3 MPH (3 knots; 1.5 m/s)
Visibility: 6 or more miles (10+ km)
Clouds: clear skies
Weather: no significant weather forecast for this period
Text: TEMPO 3021/3024 4SM HZ BR FEW250
Forecast period: 2100 UTC 30 October 2020 to 0000 UTC 31 October 2020
Forecast type: TEMPORARY: The following changes expected for less than half the time period
Visibility: 4 miles (6 km)
Ceiling: at least 12,000 feet AGL
Clouds: few clouds at 25000 feet AGL
Weather: HZ BR  (haze, mist)